sensor_id;sensor_type;location;lat;lon;timestamp;pressure;altitude;pressure_sealevel;temperature
48854;BMP280;34673;52.808;17.856;2023-09-19T00:00:44;99520.81;;;21.86
48854;BMP280;34673;52.808;17.856;2023-09-19T00:03:14;99512.38;;;21.81
48854;BMP280;34673;52.808;17.856;2023-09-19T00:05:42;99525.22;;;21.85
48854;BMP280;34673;52.808;17.856;2023-09-19T00:08:13;99517.63;;;21.81
48854;BMP280;34673;52.808;17.856;2023-09-19T00:10:41;99516.91;;;21.79
48854;BMP280;34673;52.808;17.856;2023-09-19T00:13:09;99505.63;;;21.77
48854;BMP280;34673;52.808;17.856;2023-09-19T00:15:44;99500.34;;;21.77
48854;BMP280;34673;52.808;17.856;2023-09-19T00:18:19;99507.31;;;21.78
48854;BMP280;34673;52.808;17.856;2023-09-19T00:20:49;99498.69;;;21.76
48854;BMP280;34673;52.808;17.856;2023-09-19T00:23:19;99502.25;;;21.75
48854;BMP280;34673;52.808;17.856;2023-09-19T00:25:47;99499.84;;;21.72
48854;BMP280;34673;52.808;17.856;2023-09-19T00:28:15;99500.03;;;21.68
48854;BMP280;34673;52.808;17.856;2023-09-19T00:30:44;99502.66;;;21.68
48854;BMP280;34673;52.808;17.856;2023-09-19T00:33:12;99497.59;;;21.65
48854;BMP280;34673;52.808;17.856;2023-09-19T00:35:50;99510.06;;;21.63
48854;BMP280;34673;52.808;17.856;2023-09-19T00:38:18;99519.09;;;21.59
48854;BMP280;34673;52.808;17.856;2023-09-19T00:40:49;99515.81;;;21.56
48854;BMP280;34673;52.808;17.856;2023-09-19T00:43:20;99518.00;;;21.49
48854;BMP280;34673;52.808;17.856;2023-09-19T00:45:51;99509.56;;;21.44
48854;BMP280;34673;52.808;17.856;2023-09-19T00:48:23;99497.59;;;21.40
48854;BMP280;34673;52.808;17.856;2023-09-19T00:50:52;99476.25;;;21.30
48854;BMP280;34673;52.808;17.856;2023-09-19T00:53:21;99474.50;;;21.31
48854;BMP280;34673;52.808;17.856;2023-09-19T00:55:51;99481.44;;;21.32
48854;BMP280;34673;52.808;17.856;2023-09-19T00:58:19;99475.44;;;21.30
48854;BMP280;34673;52.808;17.856;2023-09-19T01:00:50;99475.44;;;21.30
48854;BMP280;34673;52.808;17.856;2023-09-19T01:03:20;99478.19;;;21.28
48854;BMP280;34673;52.808;17.856;2023-09-19T01:05:47;99480.88;;;21.27
48854;BMP280;34673;52.808;17.856;2023-09-19T01:08:14;99482.97;;;21.21
48854;BMP280;34673;52.808;17.856;2023-09-19T01:10:52;99484.56;;;21.24
48854;BMP280;34673;52.808;17.856;2023-09-19T01:13:32;99489.19;;;21.20
48854;BMP280;34673;52.808;17.856;2023-09-19T01:16:26;99493.72;;;21.18
48854;BMP280;34673;52.808;17.856;2023-09-19T01:30:44;99484.34;;;20.87
48854;BMP280;34673;52.808;17.856;2023-09-19T01:33:13;99483.50;;;20.87
48854;BMP280;34673;52.808;17.856;2023-09-19T01:35:41;99475.81;;;20.84
48854;BMP280;34673;52.808;17.856;2023-09-19T01:38:09;99458.59;;;20.65
48854;BMP280;34673;52.808;17.856;2023-09-19T01:40:41;99493.09;;;20.73
48854;BMP280;34673;52.808;17.856;2023-09-19T01:43:19;99481.88;;;20.57
48854;BMP280;34673;52.808;17.856;2023-09-19T01:46:05;99502.97;;;20.70
48854;BMP280;34673;52.808;17.856;2023-09-19T01:48:46;99503.09;;;20.68
48854;BMP280;34673;52.808;17.856;2023-09-19T01:51:29;99513.69;;;20.67
48854;BMP280;34673;52.808;17.856;2023-09-19T01:54:10;99515.47;;;20.66
48854;BMP280;34673;52.808;17.856;2023-09-19T01:59:12;99507.78;;;20.63
48854;BMP280;34673;52.808;17.856;2023-09-19T02:01:42;99506.28;;;20.59
48854;BMP280;34673;52.808;17.856;2023-09-19T02:04:12;99504.94;;;20.52
48854;BMP280;34673;52.808;17.856;2023-09-19T02:06:43;99507.69;;;20.50
48854;BMP280;34673;52.808;17.856;2023-09-19T02:09:10;99505.88;;;20.51
48854;BMP280;34673;52.808;17.856;2023-09-19T02:11:37;99513.88;;;20.49
48854;BMP280;34673;52.808;17.856;2023-09-19T02:14:05;99507.88;;;20.47
48854;BMP280;34673;52.808;17.856;2023-09-19T02:16:35;99507.97;;;20.46
48854;BMP280;34673;52.808;17.856;2023-09-19T02:19:03;99513.22;;;20.46
48854;BMP280;34673;52.808;17.856;2023-09-19T02:21:33;99511.81;;;20.40
48854;BMP280;34673;52.808;17.856;2023-09-19T02:24:00;99512.84;;;20.37
48854;BMP280;34673;52.808;17.856;2023-09-19T02:26:27;99527.56;;;20.40
48854;BMP280;34673;52.808;17.856;2023-09-19T02:28:54;99517.91;;;20.41
48854;BMP280;34673;52.808;17.856;2023-09-19T02:31:22;99492.03;;;20.34
48854;BMP280;34673;52.808;17.856;2023-09-19T02:33:49;99509.66;;;20.32
48854;BMP280;34673;52.808;17.856;2023-09-19T02:36:16;99515.66;;;20.34
48854;BMP280;34673;52.808;17.856;2023-09-19T02:38:44;99520.56;;;20.26
48854;BMP280;34673;52.808;17.856;2023-09-19T02:41:11;99522.06;;;20.30
48854;BMP280;34673;52.808;17.856;2023-09-19T02:43:38;99517.84;;;20.28
48854;BMP280;34673;52.808;17.856;2023-09-19T02:46:06;99519.06;;;20.22
48854;BMP280;34673;52.808;17.856;2023-09-19T02:48:33;99519.22;;;20.19
48854;BMP280;34673;52.808;17.856;2023-09-19T02:51:02;99517.94;;;20.12
48854;BMP280;34673;52.808;17.856;2023-09-19T02:53:30;99528.63;;;20.09
48854;BMP280;34673;52.808;17.856;2023-09-19T02:55:58;99530.50;;;20.07
48854;BMP280;34673;52.808;17.856;2023-09-19T02:58:25;99521.28;;;20.00
48854;BMP280;34673;52.808;17.856;2023-09-19T03:00:55;99516.41;;;19.93
48854;BMP280;34673;52.808;17.856;2023-09-19T03:03:23;99518.19;;;19.93
48854;BMP280;34673;52.808;17.856;2023-09-19T03:05:50;99516.34;;;19.95
48854;BMP280;34673;52.808;17.856;2023-09-19T03:08:21;99511.34;;;19.90
48854;BMP280;34673;52.808;17.856;2023-09-19T03:10:49;99524.47;;;19.90
48854;BMP280;34673;52.808;17.856;2023-09-19T03:13:16;99520.16;;;19.89
48854;BMP280;34673;52.808;17.856;2023-09-19T03:15:44;99513.97;;;19.90
48854;BMP280;34673;52.808;17.856;2023-09-19T03:18:16;99517.53;;;19.89
48854;BMP280;34673;52.808;17.856;2023-09-19T03:20:52;99510.59;;;19.88
48854;BMP280;34673;52.808;17.856;2023-09-19T03:23:23;99517.38;;;19.92
48854;BMP280;34673;52.808;17.856;2023-09-19T03:25:50;99506.19;;;19.89
48854;BMP280;34673;52.808;17.856;2023-09-19T03:28:19;99511.94;;;19.96
48854;BMP280;34673;52.808;17.856;2023-09-19T03:31:04;99519.03;;;19.93
48854;BMP280;34673;52.808;17.856;2023-09-19T03:33:34;99514.16;;;19.87
48854;BMP280;34673;52.808;17.856;2023-09-19T03:36:02;99524.47;;;19.90
48854;BMP280;34673;52.808;17.856;2023-09-19T03:38:34;99518.47;;;19.88
48854;BMP280;34673;52.808;17.856;2023-09-19T03:41:02;99518.38;;;19.90
48854;BMP280;34673;52.808;17.856;2023-09-19T03:43:32;99518.38;;;19.90
48854;BMP280;34673;52.808;17.856;2023-09-19T03:46:03;99507.03;;;19.89
48854;BMP280;34673;52.808;17.856;2023-09-19T03:48:36;99503.47;;;19.90
48854;BMP280;34673;52.808;17.856;2023-09-19T03:51:04;99505.16;;;19.91
48854;BMP280;34673;52.808;17.856;2023-09-19T03:53:31;99489.03;;;19.83
48854;BMP280;34673;52.808;17.856;2023-09-19T03:55:58;99498.41;;;19.87
48854;BMP280;34673;52.808;17.856;2023-09-19T03:58:30;99506.19;;;19.89
48854;BMP280;34673;52.808;17.856;2023-09-19T04:00:57;99486.22;;;19.86
48854;BMP280;34673;52.808;17.856;2023-09-19T04:03:27;99485.56;;;19.83
48854;BMP280;34673;52.808;17.856;2023-09-19T04:06:02;99487.53;;;19.79
48854;BMP280;34673;52.808;17.856;2023-09-19T04:08:30;99478.91;;;19.77
48854;BMP280;34673;52.808;17.856;2023-09-19T04:10:57;99482.28;;;19.79
48854;BMP280;34673;52.808;17.856;2023-09-19T04:13:25;99448.28;;;19.62
48854;BMP280;34673;52.808;17.856;2023-09-19T04:15:52;99481.72;;;19.74
48854;BMP280;34673;52.808;17.856;2023-09-19T04:18:20;99473.28;;;19.69
48854;BMP280;34673;52.808;17.856;2023-09-19T04:20:51;99480.19;;;19.70
48854;BMP280;34673;52.808;17.856;2023-09-19T04:23:19;99480.38;;;19.67
48854;BMP280;34673;52.808;17.856;2023-09-19T04:25:49;99489.19;;;19.66
48854;BMP280;34673;52.808;17.856;2023-09-19T04:28:17;99484.28;;;19.60
48854;BMP280;34673;52.808;17.856;2023-09-19T04:30:44;99487.00;;;19.58
48854;BMP280;34673;52.808;17.856;2023-09-19T04:33:11;99490.38;;;19.60
48854;BMP280;34673;52.808;17.856;2023-09-19T04:35:41;99488.03;;;19.56
48854;BMP280;34673;52.808;17.856;2023-09-19T04:38:09;99493.09;;;19.59
48854;BMP280;34673;52.808;17.856;2023-09-19T04:40:36;99484.81;;;19.51
48854;BMP280;34673;52.808;17.856;2023-09-19T04:43:06;99490.66;;;19.56
48854;BMP280;34673;52.808;17.856;2023-09-19T04:45:34;99503.19;;;19.51
48854;BMP280;34673;52.808;17.856;2023-09-19T04:48:02;99500.75;;;19.47
48854;BMP280;34673;52.808;17.856;2023-09-19T04:50:29;99500.56;;;19.51
48854;BMP280;34673;52.808;17.856;2023-09-19T04:52:57;99491.94;;;19.48
48854;BMP280;34673;52.808;17.856;2023-09-19T04:55:24;99493.81;;;19.46
48854;BMP280;34673;52.808;17.856;2023-09-19T04:57:51;99493.81;;;19.46
48854;BMP280;34673;52.808;17.856;2023-09-19T05:00:22;99495.19;;;19.38
48854;BMP280;34673;52.808;17.856;2023-09-19T05:02:57;99501.09;;;19.41
48854;BMP280;34673;52.808;17.856;2023-09-19T05:05:25;99497.53;;;19.42
48854;BMP280;34673;52.808;17.856;2023-09-19T05:07:53;99494.16;;;19.40
48854;BMP280;34673;52.808;17.856;2023-09-19T05:10:23;99500.09;;;19.44
48854;BMP280;34673;52.808;17.856;2023-09-19T05:12:53;99504.50;;;19.43
48854;BMP280;34673;52.808;17.856;2023-09-19T05:15:20;99499.25;;;19.43
48854;BMP280;34673;52.808;17.856;2023-09-19T05:17:51;99490.63;;;19.41
48854;BMP280;34673;52.808;17.856;2023-09-19T05:20:24;99492.28;;;19.42
48854;BMP280;34673;52.808;17.856;2023-09-19T05:23:13;99494.00;;;19.43
48854;BMP280;34673;52.808;17.856;2023-09-19T05:25:40;99498.38;;;19.43
48854;BMP280;34673;52.808;17.856;2023-09-19T05:28:09;99494.00;;;19.43
48854;BMP280;34673;52.808;17.856;2023-09-19T05:30:38;99504.50;;;19.43
48854;BMP280;34673;52.808;17.856;2023-09-19T05:33:07;99509.75;;;19.43
48854;BMP280;34673;52.808;17.856;2023-09-19T05:35:35;99517.75;;;19.40
48854;BMP280;34673;52.808;17.856;2023-09-19T05:38:07;99518.53;;;19.42
48854;BMP280;34673;52.808;17.856;2023-09-19T05:40:35;99517.59;;;19.43
48854;BMP280;34673;52.808;17.856;2023-09-19T05:43:03;99520.38;;;19.40
48854;BMP280;34673;52.808;17.856;2023-09-19T05:45:32;99515.00;;;19.43
48854;BMP280;34673;52.808;17.856;2023-09-19T05:48:20;99514.81;;;19.46
48854;BMP280;34673;52.808;17.856;2023-09-19T05:50:48;99516.84;;;19.41
48854;BMP280;34673;52.808;17.856;2023-09-19T05:53:17;99509.06;;;19.40
48854;BMP280;34673;52.808;17.856;2023-09-19T05:55:45;99503.91;;;19.38
48854;BMP280;34673;52.808;17.856;2023-09-19T05:58:13;99507.38;;;19.39
48854;BMP280;34673;52.808;17.856;2023-09-19T06:00:45;99514.41;;;19.38
48854;BMP280;34673;52.808;17.856;2023-09-19T06:03:14;99513.91;;;19.32
48854;BMP280;34673;52.808;17.856;2023-09-19T06:05:41;99525.81;;;19.37
48854;BMP280;34673;52.808;17.856;2023-09-19T06:08:09;99531.22;;;19.34
48854;BMP280;34673;52.808;17.856;2023-09-19T06:10:36;99529.38;;;19.36
48854;BMP280;34673;52.808;17.856;2023-09-19T06:13:04;99532.00;;;19.36
48854;BMP280;34673;52.808;17.856;2023-09-19T06:15:32;99532.84;;;19.37
48854;BMP280;34673;52.808;17.856;2023-09-19T06:18:00;99540.97;;;19.32
48854;BMP280;34673;52.808;17.856;2023-09-19T06:20:29;99534.97;;;19.30
48854;BMP280;34673;52.808;17.856;2023-09-19T06:22:56;99539.34;;;19.30
48854;BMP280;34673;52.808;17.856;2023-09-19T06:25:24;99531.41;;;19.31
48854;BMP280;34673;52.808;17.856;2023-09-19T06:27:52;99543.59;;;19.32
48854;BMP280;34673;52.808;17.856;2023-09-19T06:30:22;99540.22;;;19.30
48854;BMP280;34673;52.808;17.856;2023-09-19T06:32:58;99540.22;;;19.30
48854;BMP280;34673;52.808;17.856;2023-09-19T06:35:27;99543.59;;;19.32
48854;BMP280;34673;52.808;17.856;2023-09-19T06:37:56;99546.19;;;19.32
48854;BMP280;34673;52.808;17.856;2023-09-19T06:40:25;99557.28;;;19.37
48854;BMP280;34673;52.808;17.856;2023-09-19T06:42:55;99559.16;;;19.35
48854;BMP280;34673;52.808;17.856;2023-09-19T06:45:23;99552.03;;;19.37
48854;BMP280;34673;52.808;17.856;2023-09-19T06:47:54;99559.16;;;19.35
48854;BMP280;34673;52.808;17.856;2023-09-19T06:50:26;99572.84;;;19.40
48854;BMP280;34673;52.808;17.856;2023-09-19T06:52:54;99567.44;;;19.43
48854;BMP280;34673;52.808;17.856;2023-09-19T06:55:25;99565.72;;;19.42
48854;BMP280;34673;52.808;17.856;2023-09-19T06:57:56;99569.13;;;19.44
48854;BMP280;34673;52.808;17.856;2023-09-19T07:00:23;99591.59;;;19.48
48854;BMP280;34673;52.808;17.856;2023-09-19T07:02:58;99570.13;;;19.42
48854;BMP280;34673;52.808;17.856;2023-09-19T07:05:28;99590.59;;;19.51
48854;BMP280;34673;52.808;17.856;2023-09-19T07:07:55;99577.56;;;19.49
48854;BMP280;34673;52.808;17.856;2023-09-19T07:10:23;99588.53;;;19.56
48854;BMP280;34673;52.808;17.856;2023-09-19T07:13:01;99583.47;;;19.53
48854;BMP280;34673;52.808;17.856;2023-09-19T07:15:32;99592.97;;;19.56
48854;BMP280;34673;52.808;17.856;2023-09-19T07:18:02;99595.56;;;19.56
48854;BMP280;34673;52.808;17.856;2023-09-19T07:20:30;99594.81;;;19.54
48854;BMP280;34673;52.808;17.856;2023-09-19T07:22:59;99582.47;;;19.56
48854;BMP280;34673;52.808;17.856;2023-09-19T07:25:30;99591.09;;;19.58
48854;BMP280;34673;52.808;17.856;2023-09-19T07:27:58;99594.47;;;19.60
48854;BMP280;34673;52.808;17.856;2023-09-19T07:30:28;99573.66;;;19.57
48854;BMP280;34673;52.808;17.856;2023-09-19T07:32:56;99598.53;;;19.65
48854;BMP280;34673;52.808;17.856;2023-09-19T07:35:23;99598.47;;;19.67
48854;BMP280;34673;52.808;17.856;2023-09-19T07:37:52;99593.97;;;19.69
48854;BMP280;34673;52.808;17.856;2023-09-19T07:40:19;99602.63;;;19.71
48854;BMP280;34673;52.808;17.856;2023-09-19T07:42:50;99606.16;;;19.70
48854;BMP280;34673;52.808;17.856;2023-09-19T07:45:18;99604.28;;;19.72
48854;BMP280;34673;52.808;17.856;2023-09-19T07:47:45;99612.94;;;19.74
48854;BMP280;34673;52.808;17.856;2023-09-19T07:50:15;99606.66;;;19.77
48854;BMP280;34673;52.808;17.856;2023-09-19T07:52:44;99602.25;;;19.77
48854;BMP280;34673;52.808;17.856;2023-09-19T07:55:12;99610.69;;;19.82
48854;BMP280;34673;52.808;17.856;2023-09-19T07:57:43;99617.44;;;19.86
48854;BMP280;34673;52.808;17.856;2023-09-19T08:00:11;99624.22;;;19.90
48854;BMP280;34673;52.808;17.856;2023-09-19T08:02:39;99630.13;;;19.94
48854;BMP280;34673;52.808;17.856;2023-09-19T08:05:11;99628.91;;;20.00
48854;BMP280;34673;52.808;17.856;2023-09-19T08:07:40;99618.88;;;19.92
48854;BMP280;34673;52.808;17.856;2023-09-19T08:10:08;99636.06;;;19.98
48854;BMP280;34673;52.808;17.856;2023-09-19T08:12:40;99637.94;;;19.96
48854;BMP280;34673;52.808;17.856;2023-09-19T08:15:18;99641.66;;;19.91
48854;BMP280;34673;52.808;17.856;2023-09-19T08:17:47;99642.41;;;19.93
48854;BMP280;34673;52.808;17.856;2023-09-19T08:20:15;99652.16;;;19.91
48854;BMP280;34673;52.808;17.856;2023-09-19T08:22:50;99648.63;;;19.92
48854;BMP280;34673;52.808;17.856;2023-09-19T08:25:24;99649.28;;;19.96
48854;BMP280;34673;52.808;17.856;2023-09-19T08:27:55;99637.81;;;19.97
48854;BMP280;34673;52.808;17.856;2023-09-19T08:30:25;99651.28;;;20.07
48854;BMP280;34673;52.808;17.856;2023-09-19T08:32:58;99662.75;;;20.20
48854;BMP280;34673;52.808;17.856;2023-09-19T08:35:28;99664.81;;;20.29
48854;BMP280;34673;52.808;17.856;2023-09-19T08:37:56;99672.50;;;20.32
48854;BMP280;34673;52.808;17.856;2023-09-19T08:40:23;99675.06;;;20.34
48854;BMP280;34673;52.808;17.856;2023-09-19T08:42:53;99669.75;;;20.50
48854;BMP280;34673;52.808;17.856;2023-09-19T08:45:25;99673.91;;;20.68
48854;BMP280;34673;52.808;17.856;2023-09-19T08:48:23;99676.72;;;20.79
48854;BMP280;34673;52.808;17.856;2023-09-19T08:51:00;99676.63;;;20.95
48854;BMP280;34673;52.808;17.856;2023-09-19T08:53:50;99669.75;;;21.07
48854;BMP280;34673;52.808;17.856;2023-09-19T08:56:18;99670.88;;;21.17
48854;BMP280;34673;52.808;17.856;2023-09-19T08:58:52;99679.13;;;21.11
48854;BMP280;34673;52.808;17.856;2023-09-19T09:01:21;99679.53;;;21.05
48854;BMP280;34673;52.808;17.856;2023-09-19T09:03:56;99680.47;;;21.04
48854;BMP280;34673;52.808;17.856;2023-09-19T09:06:25;99690.81;;;21.07
48854;BMP280;34673;52.808;17.856;2023-09-19T09:08:52;99672.03;;;20.99
48854;BMP280;34673;52.808;17.856;2023-09-19T09:11:21;99677.47;;;20.96
48854;BMP280;34673;52.808;17.856;2023-09-19T09:13:48;99652.50;;;20.74
48854;BMP280;34673;52.808;17.856;2023-09-19T09:16:16;99683.28;;;20.87
48854;BMP280;34673;52.808;17.856;2023-09-19T09:18:46;99684.69;;;20.78
48854;BMP280;34673;52.808;17.856;2023-09-19T09:21:29;99681.13;;;20.79
48854;BMP280;34673;52.808;17.856;2023-09-19T09:23:56;99675.56;;;20.98
48854;BMP280;34673;52.808;17.856;2023-09-19T09:29:06;99668.78;;;21.37
48854;BMP280;34673;52.808;17.856;2023-09-19T09:31:33;99669.16;;;21.45
48854;BMP280;34673;52.808;17.856;2023-09-19T09:34:00;99680.22;;;21.36
48854;BMP280;34673;52.808;17.856;2023-09-19T09:36:36;99679.41;;;21.21
48854;BMP280;34673;52.808;17.856;2023-09-19T09:39:03;99688.06;;;21.09
48854;BMP280;34673;52.808;17.856;2023-09-19T09:41:43;99690.72;;;20.94
48854;BMP280;34673;52.808;17.856;2023-09-19T09:44:15;99680.28;;;20.78
48854;BMP280;34673;52.808;17.856;2023-09-19T09:46:46;99682.19;;;20.76
48854;BMP280;34673;52.808;17.856;2023-09-19T09:49:27;99694.38;;;20.77
48854;BMP280;34673;52.808;17.856;2023-09-19T09:52:04;99694.19;;;20.80
48854;BMP280;34673;52.808;17.856;2023-09-19T09:54:38;99699.25;;;20.84
48854;BMP280;34673;52.808;17.856;2023-09-19T09:57:07;99702.06;;;20.95
48854;BMP280;34673;52.808;17.856;2023-09-19T09:59:51;99704.50;;;21.12
48854;BMP280;34673;52.808;17.856;2023-09-19T10:02:27;99692.09;;;21.14
48854;BMP280;34673;52.808;17.856;2023-09-19T10:05:12;99707.88;;;21.29
48854;BMP280;34673;52.808;17.856;2023-09-19T10:08:11;99720.84;;;21.32
48854;BMP280;34673;52.808;17.856;2023-09-19T10:10:45;99727.53;;;21.23
48854;BMP280;34673;52.808;17.856;2023-09-19T10:13:31;99722.91;;;21.12
48854;BMP280;34673;52.808;17.856;2023-09-19T10:16:05;99731.19;;;21.20
48854;BMP280;34673;52.808;17.856;2023-09-19T10:18:36;99733.97;;;21.32
48854;BMP280;34673;52.808;17.856;2023-09-19T10:21:08;99741.13;;;21.44
48854;BMP280;34673;52.808;17.856;2023-09-19T10:23:36;99745.81;;;21.53
48854;BMP280;34673;52.808;17.856;2023-09-19T10:26:06;99746.03;;;21.50
48854;BMP280;34673;52.808;17.856;2023-09-19T10:28:35;99758.44;;;21.48
48854;BMP280;34673;52.808;17.856;2023-09-19T10:31:03;99728.34;;;21.23
48854;BMP280;34673;52.808;17.856;2023-09-19T10:33:35;99771.66;;;21.46
48854;BMP280;34673;52.808;17.856;2023-09-19T10:36:04;99759.38;;;21.47
48854;BMP280;34673;52.808;17.856;2023-09-19T10:38:33;99762.38;;;21.41
48854;BMP280;34673;52.808;17.856;2023-09-19T10:41:03;99772.41;;;21.34
48854;BMP280;34673;52.808;17.856;2023-09-19T10:43:33;99770.25;;;21.27
48854;BMP280;34673;52.808;17.856;2023-09-19T10:46:07;99763.97;;;21.29
48854;BMP280;34673;52.808;17.856;2023-09-19T10:48:38;99759.16;;;21.36
48854;BMP280;34673;52.808;17.856;2023-09-19T10:51:20;99773.38;;;21.48
48854;BMP280;34673;52.808;17.856;2023-09-19T10:53:54;99755.75;;;21.62
48854;BMP280;34673;52.808;17.856;2023-09-19T10:56:51;99768.31;;;21.86
48854;BMP280;34673;52.808;17.856;2023-09-19T10:59:21;99752.84;;;21.94
48854;BMP280;34673;52.808;17.856;2023-09-19T11:01:53;99740.59;;;22.07
48854;BMP280;34673;52.808;17.856;2023-09-19T11:04:33;99736.78;;;22.11
48854;BMP280;34673;52.808;17.856;2023-09-19T11:07:07;99741.22;;;22.11
48854;BMP280;34673;52.808;17.856;2023-09-19T11:09:55;99735.09;;;22.10
48854;BMP280;34673;52.808;17.856;2023-09-19T11:14:59;99737.06;;;22.21
48854;BMP280;34673;52.808;17.856;2023-09-19T11:17:36;99737.28;;;22.31
48854;BMP280;34673;52.808;17.856;2023-09-19T11:30:46;99753.50;;;22.77
48854;BMP280;34673;52.808;17.856;2023-09-19T11:33:33;99754.22;;;22.92
48854;BMP280;34673;52.808;17.856;2023-09-19T11:36:13;99746.66;;;23.00
48854;BMP280;34673;52.808;17.856;2023-09-19T11:46:27;99751.88;;;23.39
48854;BMP280;34673;52.808;17.856;2023-09-19T11:49:07;99767.94;;;23.23
48854;BMP280;34673;52.808;17.856;2023-09-19T11:51:43;99783.38;;;23.04
48854;BMP280;34673;52.808;17.856;2023-09-19T11:54:13;99779.75;;;22.79
48854;BMP280;34673;52.808;17.856;2023-09-19T11:56:46;99777.22;;;22.65
48854;BMP280;34673;52.808;17.856;2023-09-19T11:59:27;99782.03;;;22.45
48854;BMP280;34673;52.808;17.856;2023-09-19T12:02:03;99773.34;;;22.30
48854;BMP280;34673;52.808;17.856;2023-09-19T12:04:42;99780.69;;;22.25
48854;BMP280;34673;52.808;17.856;2023-09-19T12:07:15;99771.41;;;22.20
48854;BMP280;34673;52.808;17.856;2023-09-19T12:09:49;99775.25;;;22.28
48854;BMP280;34673;52.808;17.856;2023-09-19T12:12:25;99782.03;;;22.45
48854;BMP280;34673;52.808;17.856;2023-09-19T12:14:55;99763.91;;;22.53
48854;BMP280;34673;52.808;17.856;2023-09-19T12:17:38;99774.03;;;22.60
48854;BMP280;34673;52.808;17.856;2023-09-19T12:20:08;99790.72;;;22.73
48854;BMP280;34673;52.808;17.856;2023-09-19T12:22:46;99790.28;;;22.79
48854;BMP280;34673;52.808;17.856;2023-09-19T12:25:14;99788.41;;;22.81
48854;BMP280;34673;52.808;17.856;2023-09-19T12:27:45;99788.19;;;22.84
48854;BMP280;34673;52.808;17.856;2023-09-19T12:30:16;99783.31;;;22.91
48854;BMP280;34673;52.808;17.856;2023-09-19T12:32:53;99784.75;;;22.96
48854;BMP280;34673;52.808;17.856;2023-09-19T12:35:33;99783.81;;;22.97
48854;BMP280;34673;52.808;17.856;2023-09-19T12:38:03;99804.13;;;22.95
48854;BMP280;34673;52.808;17.856;2023-09-19T12:40:32;99787.75;;;22.90
48854;BMP280;34673;52.808;17.856;2023-09-19T12:43:01;99801.69;;;22.92
48854;BMP280;34673;52.808;17.856;2023-09-19T12:45:32;99802.56;;;22.80
48854;BMP280;34673;52.808;17.856;2023-09-19T12:48:24;99800.31;;;22.74
48854;BMP280;34673;52.808;17.856;2023-09-19T12:51:03;99804.63;;;22.62
48854;BMP280;34673;52.808;17.856;2023-09-19T12:53:34;99801.19;;;22.47
48854;BMP280;34673;52.808;17.856;2023-09-19T12:56:12;99801.53;;;22.43
48854;BMP280;34673;52.808;17.856;2023-09-19T12:58:57;99808.59;;;22.42
48854;BMP280;34673;52.808;17.856;2023-09-19T13:01:26;99805.75;;;22.45
48854;BMP280;34673;52.808;17.856;2023-09-19T13:04:19;99809.66;;;22.52
48854;BMP280;34673;52.808;17.856;2023-09-19T13:06:50;99803.31;;;22.55
48854;BMP280;34673;52.808;17.856;2023-09-19T13:09:22;99808.38;;;22.45
48854;BMP280;34673;52.808;17.856;2023-09-19T13:11:55;99798.13;;;22.41
48854;BMP280;34673;52.808;17.856;2023-09-19T13:14:27;99806.28;;;22.50
48854;BMP280;34673;52.808;17.856;2023-09-19T13:17:08;99810.09;;;22.59
48854;BMP280;34673;52.808;17.856;2023-09-19T13:22:43;99808.38;;;22.58
48854;BMP280;34673;52.808;17.856;2023-09-19T13:25:17;99806.88;;;22.41
48854;BMP280;34673;52.808;17.856;2023-09-19T13:27:52;99797.75;;;22.20
48854;BMP280;34673;52.808;17.856;2023-09-19T13:30:23;99804.13;;;22.30
48854;BMP280;34673;52.808;17.856;2023-09-19T13:33:03;99810.00;;;22.33
48854;BMP280;34673;52.808;17.856;2023-09-19T13:35:32;99818.25;;;22.42
48854;BMP280;34673;52.808;17.856;2023-09-19T13:37:59;99822.91;;;22.38
48854;BMP280;34673;52.808;17.856;2023-09-19T13:40:27;99831.34;;;22.43
48854;BMP280;34673;52.808;17.856;2023-09-19T13:42:57;99818.03;;;22.32
48854;BMP280;34673;52.808;17.856;2023-09-19T13:45:25;99830.88;;;22.24
48854;BMP280;34673;52.808;17.856;2023-09-19T13:47:57;99821.84;;;22.13
48854;BMP280;34673;52.808;17.856;2023-09-19T13:50:28;99818.56;;;22.10
48854;BMP280;34673;52.808;17.856;2023-09-19T13:52:56;99823.00;;;22.09
48854;BMP280;34673;52.808;17.856;2023-09-19T13:55:25;99820.69;;;22.18
48854;BMP280;34673;52.808;17.856;2023-09-19T13:57:52;99816.47;;;22.15
48854;BMP280;34673;52.808;17.856;2023-09-19T14:00:23;99828.13;;;22.25
48854;BMP280;34673;52.808;17.856;2023-09-19T14:02:50;99829.16;;;22.23
48854;BMP280;34673;52.808;17.856;2023-09-19T14:05:19;99824.09;;;22.20
48854;BMP280;34673;52.808;17.856;2023-09-19T14:07:48;99820.88;;;22.14
48854;BMP280;34673;52.808;17.856;2023-09-19T14:10:15;99826.53;;;22.08
48854;BMP280;34673;52.808;17.856;2023-09-19T14:12:44;99823.91;;;22.08
48854;BMP280;34673;52.808;17.856;2023-09-19T14:15:12;99830.34;;;22.04
48854;BMP280;34673;52.808;17.856;2023-09-19T14:17:39;99822.53;;;22.03
48854;BMP280;34673;52.808;17.856;2023-09-19T14:20:09;99822.72;;;22.00
48854;BMP280;34673;52.808;17.856;2023-09-19T14:22:37;99825.09;;;21.90
48854;BMP280;34673;52.808;17.856;2023-09-19T14:25:05;99823.03;;;21.81
48854;BMP280;34673;52.808;17.856;2023-09-19T14:27:32;99812.72;;;21.78
48854;BMP280;34673;52.808;17.856;2023-09-19T14:30:00;99822.44;;;21.90
48854;BMP280;34673;52.808;17.856;2023-09-19T14:32:27;99829.44;;;21.91
48854;BMP280;34673;52.808;17.856;2023-09-19T14:34:55;99826.03;;;21.89
48854;BMP280;34673;52.808;17.856;2023-09-19T14:37:22;99827.91;;;21.87
48854;BMP280;34673;52.808;17.856;2023-09-19T14:39:49;99826.22;;;21.86
48854;BMP280;34673;52.808;17.856;2023-09-19T14:42:17;99828.75;;;21.87
48854;BMP280;34673;52.808;17.856;2023-09-19T14:44:45;99836.78;;;21.86
48854;BMP280;34673;52.808;17.856;2023-09-19T14:47:14;99834.88;;;21.88
48854;BMP280;34673;52.808;17.856;2023-09-19T14:49:43;99838.25;;;21.90
48854;BMP280;34673;52.808;17.856;2023-09-19T14:52:11;99833.19;;;21.87
48854;BMP280;34673;52.808;17.856;2023-09-19T14:54:42;99830.56;;;21.87
48854;BMP280;34673;52.808;17.856;2023-09-19T14:57:10;99844.56;;;21.87
48854;BMP280;34673;52.808;17.856;2023-09-19T14:59:37;99828.50;;;21.78